Strona główna
METAR-TAF:

METAR-TAF

Lotnisko :

Meiringen, Szwajcaria

Szerokość geograficzna: 46-44-25N, Długość geograficzna: 8-06-36E, wysokość: 577 m

Aktualna obserwacja pogody

Raport powstał 38 minut temu, godzina 15:20 UTC
Wiatr 3 kt od północny zachód, zmienny między zachód i północno-północny wschód
Temperatura 5°C
Wilgotność 75%
Ciśnienie 1019 hPa
Widzialność 10 km lub więcej
Rozproszone chmury na wysokości 6100 ft

METAR: LSMM 261520Z AUTO 31003KT 260V030 9999NDV SCT061 05/01 Q1019 RMK

czas: 16:58 (15:58 UTC)


TAF: brakujący

Obserwacja i prognoza pogody dla ponad 4000 lotnisk (raport METAR i TAF).

Dostępne stacje oznaczono żółtymi i czerwonymi punktami na mapie.

Najedź kursorem aby zobaczyć nazwę stacji.

Kliknij aby zobaczyć obserwacje i prognozy pogody.

Aby zmienić mapę: kliknij na zielony przycisk z czarnym krzyżykiem, aby powiększyć; na zielony przycisk z myślnikiem, aby pomniejszyć; na zielone strzałki, aby przejść do map sąsiednich.


METAR-TAF: